Time;durP1;ratioP1;P1;durP2;ratioP2;P2;SDS_P1;SDS_P2;PMS_P1;PMS_P2;Temp;Humidity;BMP_temperature;BMP_pressure;BME280_temperature;BME280_humidity;BME280_pressure;Samples;Min_cycle;Max_cycle;Signal;HPM_P1;HPM_P2
2022/06/24 00:01:39;;;;;;;3.72;2.72;;;20.50;99.90;;;;;;5019917;28;20236;-63
2022/06/24 00:04:06;;;;;;;3.50;3.00;;;20.50;99.90;;;;;;5005572;28;20210;-63
2022/06/24 00:06:44;;;;;;;4.93;2.95;;;20.50;99.90;;;;;;5031839;28;20764;-63
2022/06/24 00:09:13;;;;;;;3.38;2.58;;;20.40;99.90;;;;;;5012633;28;20225;-64
2022/06/24 00:11:41;;;;;;;3.25;2.80;;;20.40;99.90;;;;;;5009453;28;20261;-63
2022/06/24 00:14:10;;;;;;;2.90;2.70;;;20.40;99.90;;;;;;5012251;28;20612;-63
2022/06/24 00:16:57;;;;;;;2.70;2.50;;;20.40;99.90;;;;;;5027033;28;20208;-63
2022/06/24 00:19:26;;;;;;;3.13;2.83;;;20.40;99.90;;;;;;5028495;28;20258;-64
2022/06/24 00:22:06;;;;;;;3.42;2.70;;;20.30;99.90;;;;;;5003444;28;20210;-64
2022/06/24 00:24:34;;;;;;;3.00;2.58;;;20.20;99.90;;;;;;5012637;28;20232;-63
2022/06/24 00:27:04;;;;;;;3.80;2.50;;;20.20;99.90;;;;;;5015159;28;20571;-64
2022/06/24 00:29:32;;;;;;;2.63;2.42;;;20.20;99.90;;;;;;5026315;28;20198;-64
2022/06/24 00:32:05;;;;;;;3.72;3.08;;;20.10;99.90;;;;;;5010398;28;20201;-63
2022/06/24 00:34:32;;;;;;;6.55;3.13;;;20.10;99.90;;;;;;5024133;28;20201;-64
2022/06/24 00:37:19;;;;;;;3.47;3.17;;;20.10;99.90;;;;;;5002663;28;20352;-63
2022/06/24 00:39:46;;;;;;;2.90;2.70;;;20.10;99.90;;;;;;5014249;28;20205;-63
2022/06/24 00:42:15;;;;;;;5.63;2.60;;;20.00;99.90;;;;;;5014794;28;20679;-62
2022/06/24 00:44:48;;;;;;;3.88;2.75;;;20.00;99.90;;;;;;5012055;28;20247;-61
2022/06/24 00:47:16;;;;;;;7.03;2.80;;;19.90;99.90;;;;;;5021681;28;20194;-63
2022/06/24 00:49:44;;;;;;;3.78;2.45;;;20.00;99.90;;;;;;5012630;28;20205;-63
2022/06/24 00:52:12;;;;;;;3.28;2.80;;;20.00;99.90;;;;;;5007603;28;20208;-63
2022/06/24 00:54:39;;;;;;;3.72;2.75;;;19.90;99.90;;;;;;5022017;28;20288;-63
2022/06/24 00:57:06;;;;;;;3.42;2.83;;;20.70;99.90;;;;;;5012306;28;20210;-63
2022/06/24 00:59:37;;;;;;;6.22;2.70;;;20.00;99.90;;;;;;5018482;28;20202;-63
2022/06/24 01:02:06;;;;;;;3.50;2.72;;;19.90;99.90;;;;;;5000006;28;20209;-64
2022/06/24 01:04:34;;;;;;;5.15;2.90;;;19.90;99.90;;;;;;5025541;28;20202;-63
2022/06/24 01:07:01;;;;;;;3.25;2.90;;;;;;;;;;5001741;28;20209;-62
2022/06/24 01:09:28;;;;;;;5.10;3.05;;;20.00;99.90;;;;;;5014568;28;20221;-63
2022/06/24 01:11:55;;;;;;;4.85;2.90;;;19.90;99.90;;;;;;5016133;28;20201;-63
2022/06/24 01:14:22;;;;;;;3.38;2.50;;;19.80;99.90;;;;;;4994189;28;20240;-63
2022/06/24 01:16:50;;;;;;;7.85;2.70;;;19.90;99.90;;;;;;5019741;28;20194;-62
2022/06/24 01:19:18;;;;;;;3.95;2.60;;;19.90;99.90;;;;;;5016852;28;20632;-63
2022/06/24 01:21:48;;;;;;;3.67;2.55;;;19.80;99.90;;;;;;5008043;28;20212;-63
2022/06/24 01:24:16;;;;;;;4.95;2.95;;;19.80;99.90;;;;;;5022122;28;20198;-64
2022/06/24 01:26:46;;;;;;;3.55;2.78;;;19.80;99.90;;;;;;5012454;28;20232;-63
2022/06/24 01:29:14;;;;;;;3.97;3.00;;;19.80;99.90;;;;;;5008231;28;20209;-63
2022/06/24 01:31:41;;;;;;;2.83;2.55;;;19.90;99.90;;;;;;5011886;28;20212;-63
2022/06/24 01:34:09;;;;;;;2.80;2.25;;;19.80;99.90;;;;;;5011725;28;20213;-64
2022/06/24 01:36:38;;;;;;;4.25;3.00;;;;;;;;;;5006756;28;21416;-63
2022/06/24 01:39:07;;;;;;;2.65;2.45;;;19.80;99.90;;;;;;5017487;28;20202;-64
2022/06/24 01:41:34;;;;;;;3.65;2.92;;;19.80;99.90;;;;;;5004684;28;20201;-63
2022/06/24 01:44:01;;;;;;;3.55;3.05;;;19.80;99.90;;;;;;5020539;28;20611;-62
2022/06/24 01:46:28;;;;;;;3.33;2.97;;;19.70;99.90;;;;;;5025066;28;20391;-64
2022/06/24 01:48:55;;;;;;;3.38;2.75;;;19.70;99.90;;;;;;5005120;28;20301;-64
2022/06/24 01:51:24;;;;;;;2.97;2.60;;;19.70;99.90;;;;;;5024972;28;20660;-62
2022/06/24 01:53:52;;;;;;;2.67;2.47;;;19.90;99.90;;;;;;5000016;28;20229;-62
2022/06/24 01:56:21;;;;;;;3.03;2.28;;;19.60;99.90;;;;;;5014808;28;20221;-63
2022/06/24 01:58:48;;;;;;;3.13;2.60;;;19.70;99.90;;;;;;5032508;28;20193;-63
2022/06/24 02:01:15;;;;;;;3.08;2.63;;;19.60;99.90;;;;;;5003149;28;21034;-63
2022/06/24 02:03:42;;;;;;;6.18;2.60;;;19.60;99.90;;;;;;5020916;28;20738;-63
2022/06/24 02:06:10;;;;;;;3.03;2.70;;;19.60;99.90;;;;;;5012604;28;21011;-62
2022/06/24 02:08:38;;;;;;;4.45;2.78;;;19.60;99.90;;;;;;5004032;28;20707;-63
2022/06/24 02:13:52;;;;;;;3.00;2.72;;;19.50;99.90;;;;;;5017306;28;20259;-63
2022/06/24 02:16:20;;;;;;;3.95;2.85;;;19.50;99.90;;;;;;5018993;28;20201;-63
2022/06/24 02:18:47;;;;;;;2.60;2.40;;;19.50;99.90;;;;;;5016351;28;20201;-63
2022/06/24 02:21:14;;;;;;;4.95;2.95;;;19.50;99.90;;;;;;5017397;28;20208;-62
2022/06/24 02:23:42;;;;;;;5.25;2.80;;;19.40;99.90;;;;;;5031007;28;20206;-63
2022/06/24 02:26:09;;;;;;;2.80;2.50;;;19.40;99.90;;;;;;4991237;28;20252;-62
2022/06/24 02:28:36;;;;;;;3.20;2.90;;;19.50;99.90;;;;;;5008884;28;20213;-63
2022/06/24 02:31:05;;;;;;;4.50;3.10;;;19.40;99.90;;;;;;5014342;28;20206;-62
2022/06/24 02:33:31;;;;;;;4.68;2.60;;;19.40;99.90;;;;;;5020236;28;20667;-63
2022/06/24 02:35:59;;;;;;;2.97;2.72;;;19.40;99.90;;;;;;5026931;28;20583;-63
2022/06/24 02:38:25;;;;;;;3.10;2.80;;;19.30;99.90;;;;;;5013641;28;21112;-63
2022/06/24 02:40:53;;;;;;;3.45;2.90;;;19.30;99.90;;;;;;5010760;28;20205;-62
2022/06/24 02:43:22;;;;;;;2.80;2.60;;;19.00;99.90;;;;;;5008709;28;20201;-64
2022/06/24 02:45:50;;;;;;;11.75;2.55;;;19.40;99.90;;;;;;5007098;28;20217;-63
2022/06/24 02:48:20;;;;;;;3.25;2.75;;;19.30;99.90;;;;;;5021473;28;20201;-63
2022/06/24 02:50:48;;;;;;;5.55;2.63;;;19.30;99.90;;;;;;5012951;28;20205;-63
2022/06/24 02:53:16;;;;;;;3.17;2.80;;;19.20;99.90;;;;;;5015697;28;20198;-62
2022/06/24 02:55:45;;;;;;;8.27;2.95;;;19.30;99.90;;;;;;5006462;28;20220;-63
2022/06/24 02:58:13;;;;;;;4.15;2.55;;;19.20;99.90;;;;;;5000908;28;20229;-63
2022/06/24 03:00:41;;;;;;;5.65;2.67;;;19.30;99.90;;;;;;5018299;28;20201;-63
2022/06/24 03:03:08;;;;;;;3.22;2.83;;;18.30;99.90;;;;;;5007696;28;20217;-62
2022/06/24 03:05:37;;;;;;;4.07;2.53;;;21.80;99.90;;;;;;5026755;28;20230;-63
2022/06/24 03:08:04;;;;;;;5.78;2.80;;;19.30;99.90;;;;;;5019048;28;20221;-62
2022/06/24 03:10:31;;;;;;;4.45;2.90;;;19.20;99.90;;;;;;5012021;28;20201;-63
2022/06/24 03:12:58;;;;;;;4.38;2.72;;;19.20;99.90;;;;;;4996534;28;20237;-63
2022/06/24 03:15:25;;;;;;;3.83;2.38;;;19.30;99.90;;;;;;5006510;28;20209;-63
2022/06/24 03:17:52;;;;;;;4.13;2.75;;;19.30;99.90;;;;;;5036039;28;20209;-63
2022/06/24 03:20:19;;;;;;;3.15;2.80;;;19.20;99.90;;;;;;5020119;28;20722;-62
2022/06/24 03:22:47;;;;;;;5.07;3.00;;;19.60;99.90;;;;;;5017094;28;20678;-61
2022/06/24 03:25:14;;;;;;;3.00;2.70;;;19.20;99.90;;;;;;5014974;28;20217;-63
2022/06/24 03:27:41;;;;;;;2.40;2.20;;;19.10;99.90;;;;;;4999079;28;20206;-63
2022/06/24 03:30:11;;;;;;;3.53;2.67;;;19.20;99.90;;;;;;5002795;28;20901;-62
2022/06/24 03:32:37;;;;;;;2.83;2.63;;;19.20;99.90;;;;;;5028088;28;20198;-62
2022/06/24 03:35:05;;;;;;;4.28;2.95;;;19.20;99.90;;;;;;5000245;28;20197;-62
2022/06/24 03:37:32;;;;;;;3.28;2.70;;;19.20;99.90;;;;;;5027383;28;20201;-63
2022/06/24 03:40:02;;;;;;;2.97;2.55;;;19.30;99.90;;;;;;5024523;28;20190;-62
2022/06/24 03:42:28;;;;;;;4.38;2.92;;;19.50;99.90;;;;;;5004871;28;20225;-62
2022/06/24 03:44:56;;;;;;;2.85;2.60;;;19.30;99.90;;;;;;5017871;28;20201;-63
2022/06/24 03:47:23;;;;;;;4.78;2.95;;;19.30;99.90;;;;;;5002823;28;20232;-63
2022/06/24 03:49:50;;;;;;;6.22;2.53;;;19.30;99.90;;;;;;5026616;28;20208;-62
2022/06/24 03:52:17;;;;;;;4.32;2.95;;;19.30;99.90;;;;;;5012727;28;20229;-62
2022/06/24 03:54:45;;;;;;;3.22;2.72;;;19.30;99.90;;;;;;5017358;28;20220;-62
2022/06/24 03:57:13;;;;;;;4.78;2.83;;;19.30;99.90;;;;;;5016947;28;20993;-63
2022/06/24 03:59:40;;;;;;;3.45;2.47;;;19.20;99.90;;;;;;5000891;28;20205;-61
2022/06/24 04:02:06;;;;;;;4.28;2.60;;;19.30;99.90;;;;;;5015410;28;20206;-63
2022/06/24 04:04:34;;;;;;;2.95;2.60;;;19.30;99.90;;;;;;5027385;28;20199;-63
2022/06/24 04:07:00;;;;;;;3.20;2.90;;;19.30;99.90;;;;;;5010415;28;20287;-63
2022/06/24 04:09:27;;;;;;;3.78;2.40;;;19.30;99.90;;;;;;5013752;28;20215;-62
2022/06/24 04:11:54;;;;;;;3.17;2.85;;;19.30;99.90;;;;;;5015808;28;20721;-63
2022/06/24 04:17:04;;;;;;;2.92;2.67;;;19.40;99.90;;;;;;4997837;28;20217;-62
2022/06/24 04:19:31;;;;;;;3.55;2.75;;;19.40;99.90;;;;;;5027157;28;20793;-63
2022/06/24 04:21:57;;;;;;;5.07;3.22;;;19.50;99.90;;;;;;4998263;28;20232;-63
2022/06/24 04:24:24;;;;;;;2.92;2.63;;;19.70;99.90;;;;;;5022029;28;20207;-63
2022/06/24 04:26:51;;;;;;;2.90;2.60;;;19.50;99.90;;;;;;5009715;28;20237;-63
2022/06/24 04:29:18;;;;;;;2.72;2.53;;;19.50;99.90;;;;;;5002083;28;20308;-63
2022/06/24 04:31:46;;;;;;;3.58;2.60;;;19.60;99.90;;;;;;5016756;28;20565;-62
2022/06/24 04:34:13;;;;;;;3.03;2.42;;;19.60;99.90;;;;;;5002467;28;20222;-62
2022/06/24 04:36:40;;;;;;;5.35;2.78;;;19.60;99.90;;;;;;5016087;28;20221;-63
2022/06/24 04:39:07;;;;;;;4.00;2.60;;;19.80;99.90;;;;;;5021898;28;20279;-63
2022/06/24 04:41:34;;;;;;;3.45;2.47;;;19.70;99.90;;;;;;5012036;28;20205;-63
2022/06/24 04:44:01;;;;;;;4.05;2.50;;;19.70;99.90;;;;;;5026178;28;20219;-63
2022/06/24 04:46:27;;;;;;;4.00;2.67;;;19.70;99.90;;;;;;4991711;28;20734;-62
2022/06/24 04:48:56;;;;;;;2.60;2.40;;;19.70;99.90;;;;;;5006225;28;20754;-63
2022/06/24 04:51:22;;;;;;;5.43;2.63;;;19.70;99.90;;;;;;5008872;28;20244;-64
2022/06/24 04:53:49;;;;;;;6.68;2.97;;;18.30;99.90;;;;;;4994403;28;20716;-63
2022/06/24 04:56:16;;;;;;;3.22;2.65;;;19.70;99.90;;;;;;5008151;28;20208;-64
2022/06/24 04:58:43;;;;;;;4.57;2.83;;;19.80;99.90;;;;;;5009550;28;20660;-64
2022/06/24 05:01:09;;;;;;;3.10;2.80;;;19.80;99.90;;;;;;5005240;28;20198;-63
2022/06/24 05:03:36;;;;;;;3.28;2.40;;;19.80;99.90;;;;;;5006956;28;21881;-62
2022/06/24 05:06:04;;;;;;;4.90;2.42;;;19.80;99.90;;;;;;5013429;28;20233;-63
2022/06/24 05:08:31;;;;;;;4.28;2.92;;;19.90;99.90;;;;;;5012579;28;20228;-62
2022/06/24 05:10:58;;;;;;;5.82;3.03;;;20.00;99.90;;;;;;5001945;28;20232;-63
2022/06/24 05:13:25;;;;;;;3.65;2.70;;;20.00;99.90;;;;;;5022839;28;20644;-63
2022/06/24 05:15:52;;;;;;;3.08;2.40;;;20.00;99.90;;;;;;5004872;28;20244;-62
2022/06/24 05:18:20;;;;;;;2.60;2.40;;;20.10;99.90;;;;;;5009399;28;20255;-62
2022/06/24 05:20:46;;;;;;;5.38;2.70;;;20.20;99.90;;;;;;5010188;28;20224;-63
2022/06/24 05:23:15;;;;;;;2.88;2.67;;;20.30;99.90;;;;;;5030606;28;20971;-63
2022/06/24 05:25:41;;;;;;;3.10;2.80;;;20.30;99.90;;;;;;5021165;28;20206;-63
2022/06/24 05:28:08;;;;;;;4.80;2.72;;;20.40;99.90;;;;;;5026094;28;20229;-63
2022/06/24 05:30:35;;;;;;;2.80;2.33;;;20.50;99.90;;;;;;5023515;28;20204;-64
2022/06/24 05:33:02;;;;;;;8.13;3.00;;;20.50;99.90;;;;;;5005649;28;20364;-63
2022/06/24 05:35:28;;;;;;;3.97;2.60;;;20.50;99.90;;;;;;5018960;28;20201;-63
2022/06/24 05:37:55;;;;;;;3.42;2.70;;;20.60;99.90;;;;;;5020738;28;21262;-63
2022/06/24 05:40:23;;;;;;;3.70;2.88;;;20.70;99.90;;;;;;5013634;28;20477;-62
2022/06/24 05:42:50;;;;;;;3.47;2.85;;;20.60;99.90;;;;;;5029145;28;20193;-62
2022/06/24 05:45:17;;;;;;;3.33;3.03;;;20.60;99.90;;;;;;5023193;28;20225;-62
2022/06/24 05:47:44;;;;;;;5.00;2.65;;;20.70;99.90;;;;;;5008943;28;20861;-62
2022/06/24 05:50:11;;;;;;;3.83;3.20;;;20.70;99.90;;;;;;5006036;28;20272;-62
2022/06/24 05:55:23;;;;;;;5.25;3.00;;;20.70;99.90;;;;;;5011251;28;20212;-62
2022/06/24 05:57:50;;;;;;;3.22;2.80;;;20.80;99.90;;;;;;5031171;28;20206;-62
2022/06/24 06:00:17;;;;;;;5.13;3.08;;;20.90;99.90;;;;;;5024856;28;20209;-63
2022/06/24 06:02:44;;;;;;;3.63;2.80;;;20.90;99.90;;;;;;5011150;28;20216;-63
2022/06/24 06:05:11;;;;;;;4.57;2.83;;;20.90;99.90;;;;;;5019295;28;20206;-64
2022/06/24 06:07:38;;;;;;;5.88;3.15;;;21.00;99.90;;;;;;5025209;28;20373;-63
2022/06/24 06:10:06;;;;;;;4.43;3.10;;;21.00;99.90;;;;;;5024698;28;20205;-63
2022/06/24 06:12:35;;;;;;;3.30;2.92;;;21.10;99.90;;;;;;5016323;28;20251;-62
2022/06/24 06:15:02;;;;;;;3.90;3.13;;;21.10;99.90;;;;;;5023112;28;20198;-63
2022/06/24 06:17:29;;;;;;;3.15;2.92;;;21.20;99.90;;;;;;5003804;28;20484;-63
2022/06/24 06:19:56;;;;;;;5.38;3.00;;;20.80;99.90;;;;;;5023086;28;20209;-63
2022/06/24 06:22:23;;;;;;;3.22;2.92;;;21.20;99.90;;;;;;5004914;28;20297;-63
2022/06/24 06:24:50;;;;;;;3.90;3.00;;;21.20;99.90;;;;;;5022363;28;20290;-63
2022/06/24 06:27:17;;;;;;;4.63;3.58;;;21.20;99.90;;;;;;5010457;28;20253;-63
2022/06/24 06:29:45;;;;;;;4.15;2.72;;;21.20;99.90;;;;;;5025884;28;20194;-63
2022/06/24 06:32:12;;;;;;;10.10;3.38;;;21.20;99.90;;;;;;5000404;28;20198;-63
2022/06/24 06:34:39;;;;;;;3.55;2.80;;;21.30;99.90;;;;;;5019895;28;20228;-63
2022/06/24 06:37:06;;;;;;;5.45;3.33;;;21.30;99.90;;;;;;5013451;28;20244;-63
2022/06/24 06:39:33;;;;;;;3.33;2.80;;;21.40;99.90;;;;;;5020351;28;20244;-64
2022/06/24 06:42:00;;;;;;;7.65;4.05;;;21.50;99.90;;;;;;5018884;28;20210;-63
2022/06/24 06:44:27;;;;;;;6.97;3.00;;;21.50;99.90;;;;;;5006277;28;20221;-63
2022/06/24 06:46:55;;;;;;;4.63;2.92;;;21.60;99.90;;;;;;5026889;28;20229;-64
2022/06/24 06:49:22;;;;;;;4.53;3.10;;;21.70;99.90;;;;;;4999972;28;21272;-63
2022/06/24 06:51:48;;;;;;;4.43;3.47;;;21.80;99.90;;;;;;5029296;28;20658;-63
2022/06/24 06:54:15;;;;;;;5.28;2.90;;;21.90;99.90;;;;;;5004686;28;20583;-63
2022/06/24 06:56:43;;;;;;;5.40;3.08;;;22.00;99.90;;;;;;5024716;28;20730;-61
2022/06/24 06:59:10;;;;;;;4.57;2.85;;;22.00;99.90;;;;;;5011072;28;20251;-61
2022/06/24 07:01:37;;;;;;;4.13;2.80;;;22.00;99.90;;;;;;5030827;28;20194;-63
2022/06/24 07:04:05;;;;;;;5.57;3.17;;;22.10;99.90;;;;;;5010771;28;20244;-63
2022/06/24 07:06:32;;;;;;;3.92;3.00;;;22.10;99.90;;;;;;5026524;28;20204;-61
2022/06/24 07:08:59;;;;;;;5.60;3.00;;;22.20;99.90;;;;;;5026432;28;20213;-61
2022/06/24 07:11:26;;;;;;;5.97;3.70;;;22.20;99.90;;;;;;5002716;28;20403;-61
2022/06/24 07:13:54;;;;;;;5.60;3.53;;;22.30;99.90;;;;;;5018732;28;20238;-61
2022/06/24 07:16:21;;;;;;;6.30;3.75;;;22.40;99.90;;;;;;5018868;28;20470;-61
2022/06/24 07:18:48;;;;;;;8.63;3.40;;;22.40;99.90;;;;;;5029814;28;20194;-61
2022/06/24 07:21:16;;;;;;;4.45;3.30;;;22.40;99.90;;;;;;4985638;28;20800;-61
2022/06/24 07:23:43;;;;;;;6.13;3.15;;;22.30;99.90;;;;;;5025615;28;20208;-61
2022/06/24 07:26:11;;;;;;;9.57;3.20;;;22.40;99.90;;;;;;4997475;28;20447;-62
2022/06/24 07:28:38;;;;;;;5.47;2.90;;;;;;;;;;5015967;28;20229;-61
2022/06/24 07:31:14;;;;;;;4.72;3.67;;;22.40;99.90;;;;;;5024092;28;20679;-61
2022/06/24 07:33:40;;;;;;;6.80;3.50;;;22.30;99.90;;;;;;5030856;28;20212;-61
2022/06/24 07:36:07;;;;;;;4.20;3.00;;;22.40;99.90;;;;;;5003834;28;20206;-61
2022/06/24 07:38:36;;;;;;;5.43;3.53;;;22.50;99.90;;;;;;5007869;28;20384;-61
2022/06/24 07:41:03;;;;;;;6.28;3.65;;;23.20;99.90;;;;;;5013997;28;20979;-61
2022/06/24 07:43:30;;;;;;;7.18;3.72;;;22.40;99.90;;;;;;5001349;28;20197;-62
2022/06/24 07:45:57;;;;;;;6.05;3.50;;;22.50;99.90;;;;;;5017247;28;20222;-61
2022/06/24 07:48:23;;;;;;;6.40;3.35;;;22.50;99.90;;;;;;5020466;28;20233;-61
2022/06/24 07:50:50;;;;;;;3.67;3.30;;;23.20;99.90;;;;;;5007177;28;20225;-62
2022/06/24 07:53:17;;;;;;;5.05;3.65;;;22.60;99.90;;;;;;5027809;28;20221;-62
2022/06/24 07:58:29;;;;;;;5.18;3.85;;;22.70;99.90;;;;;;5018174;28;20467;-62
2022/06/24 08:00:56;;;;;;;6.75;3.92;;;22.80;99.90;;;;;;5020205;28;20205;-62
2022/06/24 08:03:23;;;;;;;6.18;3.60;;;22.80;99.90;;;;;;5014174;28;20621;-62
2022/06/24 08:05:50;;;;;;;5.70;3.33;;;22.80;99.90;;;;;;5030567;28;20578;-62
2022/06/24 08:08:17;;;;;;;4.82;3.65;;;22.90;99.90;;;;;;5000732;28;20439;-62
2022/06/24 08:10:45;;;;;;;4.07;3.65;;;22.90;99.90;;;;;;5028021;28;20194;-62
2022/06/24 08:13:13;;;;;;;5.55;3.90;;;22.90;99.90;;;;;;5018968;28;20329;-62
2022/06/24 08:15:40;;;;;;;4.95;3.63;;;23.10;99.90;;;;;;5029498;28;20205;-62
2022/06/24 08:18:07;;;;;;;6.75;3.80;;;23.10;99.90;;;;;;5024555;28;20592;-62
2022/06/24 08:20:34;;;;;;;5.68;4.20;;;23.20;99.90;;;;;;5025984;28;20707;-62
2022/06/24 08:23:01;;;;;;;7.40;3.85;;;23.10;99.90;;;;;;5005233;28;20221;-62
2022/06/24 08:25:28;;;;;;;5.00;3.97;;;23.10;99.90;;;;;;5020143;28;20212;-62
2022/06/24 08:27:57;;;;;;;10.10;4.57;;;23.20;99.90;;;;;;5026792;28;20225;-62
2022/06/24 08:30:24;;;;;;;6.75;3.90;;;23.30;99.90;;;;;;5020265;28;20441;-62
2022/06/24 08:32:50;;;;;;;12.60;4.05;;;23.40;99.90;;;;;;5032921;28;20205;-62
2022/06/24 08:35:17;;;;;;;9.13;4.10;;;23.40;99.90;;;;;;5028359;28;20349;-62
2022/06/24 08:37:45;;;;;;;9.00;4.28;;;;;;;;;;5000909;28;20237;-63
2022/06/24 08:40:13;;;;;;;8.45;5.28;;;23.60;99.90;;;;;;5011265;28;20232;-62
2022/06/24 08:42:40;;;;;;;8.68;5.10;;;23.60;99.90;;;;;;5030440;28;20241;-62
2022/06/24 08:45:09;;;;;;;7.53;4.50;;;23.80;99.90;;;;;;5020009;28;20750;-62
2022/06/24 08:47:36;;;;;;;6.65;4.60;;;23.80;99.90;;;;;;5028721;28;20703;-62
2022/06/24 08:50:04;;;;;;;13.05;5.47;;;23.90;99.90;;;;;;5020941;28;20213;-62
2022/06/24 08:52:31;;;;;;;7.47;5.55;;;23.80;99.90;;;;;;5027872;28;20624;-62
2022/06/24 08:55:00;;;;;;;8.35;5.40;;;23.90;99.90;;;;;;5009771;28;20205;-62
2022/06/24 08:57:27;;;;;;;8.10;5.78;;;23.90;99.90;;;;;;5027497;28;20323;-62
2022/06/24 08:59:53;;;;;;;8.10;5.93;;;23.90;99.90;;;;;;5021764;28;20520;-62
2022/06/24 09:02:22;;;;;;;7.75;5.68;;;24.00;99.90;;;;;;5026753;28;20303;-62
2022/06/24 09:04:49;;;;;;;10.85;6.13;;;24.10;99.90;;;;;;5029615;28;20201;-62
2022/06/24 09:07:24;;;;;;;9.65;5.95;;;24.20;99.90;;;;;;5025724;28;20540;-62
2022/06/24 09:09:59;;;;;;;10.85;5.90;;;24.20;99.90;;;;;;5008343;28;20355;-62
2022/06/24 09:12:29;;;;;;;11.00;6.30;;;24.20;99.90;;;;;;5010920;28;20209;-62
2022/06/24 09:14:56;;;;;;;26.70;7.10;;;24.30;99.90;;;;;;5026641;28;20217;-62
2022/06/24 09:17:29;;;;;;;8.05;5.60;;;24.20;99.90;;;;;;5011625;28;20496;-62
2022/06/24 09:20:04;;;;;;;9.98;5.57;;;24.30;99.90;;;;;;5031104;28;20283;-62
2022/06/24 09:22:31;;;;;;;6.43;5.70;;;24.40;99.90;;;;;;5004838;28;20657;-62
2022/06/24 09:25:00;;;;;;;6.72;6.05;;;24.40;99.90;;;;;;5011852;28;20252;-62
2022/06/24 09:27:27;;;;;;;9.27;6.05;;;24.40;99.90;;;;;;5009788;28;20225;-62
2022/06/24 09:29:54;;;;;;;8.88;5.32;;;24.50;99.90;;;;;;5032374;28;20216;-62
2022/06/24 09:32:20;;;;;;;9.95;6.45;;;24.50;99.90;;;;;;5016232;28;20209;-62
2022/06/24 09:35:07;;;;;;;10.93;5.50;;;24.50;99.90;;;;;;5028436;28;20781;-62
2022/06/24 09:37:35;;;;;;;13.77;6.05;;;24.60;99.90;;;;;;5027126;28;20314;-62
2022/06/24 09:40:16;;;;;;;11.75;6.30;;;24.70;99.90;;;;;;5006669;28;20491;-62
2022/06/24 09:42:42;;;;;;;7.18;5.13;;;24.70;99.90;;;;;;5020838;28;20214;-62
2022/06/24 09:45:10;;;;;;;7.85;5.35;;;24.70;99.90;;;;;;5027191;28;20194;-62
2022/06/24 09:47:39;;;;;;;11.27;6.88;;;24.70;99.90;;;;;;5014308;28;20217;-62
2022/06/24 09:50:09;;;;;;;7.43;6.53;;;24.80;99.90;;;;;;5026206;28;20197;-62
2022/06/24 09:52:36;;;;;;;13.20;6.38;;;24.80;99.90;;;;;;5029848;28;20289;-62
2022/06/24 09:55:04;;;;;;;12.05;6.20;;;24.80;99.90;;;;;;5015767;28;20400;-62
2022/06/24 09:57:31;;;;;;;10.40;6.90;;;24.80;99.90;;;;;;5006738;28;20770;-62
2022/06/24 10:02:43;;;;;;;11.45;7.30;;;24.70;99.90;;;;;;5016119;28;20224;-62
2022/06/24 10:05:15;;;;;;;9.10;7.75;;;24.70;99.90;;;;;;5027836;28;20194;-62
2022/06/24 10:07:46;;;;;;;13.65;8.30;;;24.80;99.90;;;;;;5024596;28;20243;-62
2022/06/24 10:10:15;;;;;;;9.43;7.45;;;25.30;99.90;;;;;;5001613;28;20197;-62
2022/06/24 10:12:50;;;;;;;9.57;7.88;;;24.60;99.90;;;;;;5006542;28;20935;-62
2022/06/24 10:15:18;;;;;;;10.00;7.57;;;24.50;99.90;;;;;;5016533;28;22343;-62
2022/06/24 10:17:47;;;;;;;7.22;6.47;;;24.50;99.90;;;;;;5015433;28;20205;-62
2022/06/24 10:20:17;;;;;;;8.65;6.35;;;24.50;99.90;;;;;;5017686;28;20240;-62
2022/06/24 10:22:46;;;;;;;10.27;6.38;;;24.50;99.90;;;;;;5018080;28;20283;-62
2022/06/24 10:25:18;;;;;;;11.00;7.30;;;24.40;99.90;;;;;;5016666;28;20225;-62
2022/06/24 10:28:07;;;;;;;6.88;6.22;;;24.40;99.90;;;;;;5014125;28;20244;-63
2022/06/24 10:30:56;;;;;;;9.15;7.05;;;24.30;99.90;;;;;;5013615;28;20209;-63
2022/06/24 10:33:26;;;;;;;10.73;7.32;;;24.20;99.90;;;;;;5012349;28;20322;-63
2022/06/24 10:36:00;;;;;;;20.65;7.88;;;24.10;99.90;;;;;;5017475;28;20330;-63
2022/06/24 10:38:38;;;;;;;11.20;7.40;;;24.10;99.90;;;;;;5023297;28;20406;-63
2022/06/24 10:41:07;;;;;;;9.00;8.00;;;24.00;99.90;;;;;;5022339;28;20201;-63
2022/06/24 10:43:42;;;;;;;8.82;7.00;;;23.70;99.90;;;;;;4995744;28;20949;-63
2022/06/24 10:46:19;;;;;;;9.40;7.60;;;23.90;99.90;;;;;;5018883;28;20221;-63
2022/06/24 10:49:00;;;;;;;8.80;7.28;;;24.00;99.90;;;;;;5030373;28;20233;-63
2022/06/24 10:51:34;;;;;;;7.72;6.80;;;24.00;99.90;;;;;;5015863;28;20221;-63
2022/06/24 10:54:13;;;;;;;9.10;7.03;;;24.00;99.90;;;;;;5027864;28;20224;-63
2022/06/24 10:56:41;;;;;;;6.85;6.03;;;24.10;99.90;;;;;;5028533;28;20571;-63
2022/06/24 10:59:08;;;;;;;11.57;7.07;;;24.10;99.90;;;;;;4991477;28;20443;-63
2022/06/24 11:01:35;;;;;;;8.25;7.10;;;24.20;99.90;;;;;;5026469;28;20217;-63
2022/06/24 11:04:03;;;;;;;8.48;6.47;;;24.60;99.90;;;;;;5020475;28;20238;-63
2022/06/24 11:06:31;;;;;;;10.00;6.28;;;24.60;99.90;;;;;;5013170;28;20590;-63
2022/06/24 11:09:05;;;;;;;8.43;6.18;;;24.60;99.90;;;;;;5025231;28;20233;-63
2022/06/24 11:11:33;;;;;;;11.93;6.32;;;25.30;99.90;;;;;;5024048;28;20316;-63
2022/06/24 11:14:00;;;;;;;6.47;5.88;;;24.60;99.90;;;;;;5001596;28;20807;-63
2022/06/24 11:16:28;;;;;;;11.10;6.30;;;24.60;99.90;;;;;;5011785;28;20380;-63
2022/06/24 11:18:55;;;;;;;13.80;6.75;;;24.50;99.90;;;;;;5023054;28;20711;-63
2022/06/24 11:21:22;;;;;;;9.10;6.93;;;24.40;99.90;;;;;;5014184;28;20438;-63
2022/06/24 11:23:54;;;;;;;8.65;5.70;;;24.40;99.90;;;;;;5006782;28;20232;-63
2022/06/24 11:26:21;;;;;;;8.00;6.70;;;24.30;99.90;;;;;;5029130;28;20208;-63
2022/06/24 11:28:52;;;;;;;9.68;7.00;;;24.20;99.90;;;;;;5009967;28;20217;-63
2022/06/24 11:31:20;;;;;;;9.43;6.05;;;23.40;99.90;;;;;;5016020;28;20229;-63
2022/06/24 11:33:48;;;;;;;8.10;6.30;;;24.10;99.90;;;;;;5023948;28;20205;-62
2022/06/24 11:36:15;;;;;;;8.23;5.75;;;24.00;99.90;;;;;;5035707;28;20236;-62
2022/06/24 11:38:56;;;;;;;7.88;5.28;;;23.90;99.90;;;;;;5034054;28;20227;-63
2022/06/24 11:41:28;;;;;;;5.93;4.95;;;23.90;99.90;;;;;;5032938;28;20284;-62
2022/06/24 11:43:55;;;;;;;4.90;4.40;;;24.00;99.90;;;;;;5025379;28;20198;-62
2022/06/24 11:46:22;;;;;;;8.48;4.72;;;24.00;99.90;;;;;;4980623;28;20225;-63
2022/06/24 11:48:49;;;;;;;5.40;3.50;;;24.00;99.90;;;;;;5026473;28;20235;-63
2022/06/24 11:51:19;;;;;;;7.38;4.13;;;26.60;99.90;;;;;;4999459;28;20224;-63
2022/06/24 11:53:57;;;;;;;13.93;4.10;;;24.10;99.90;;;;;;5027073;28;20345;-63
2022/06/24 11:56:27;;;;;;;5.03;3.70;;;24.30;99.90;;;;;;5030274;28;20410;-63
2022/06/24 11:58:54;;;;;;;4.55;3.70;;;24.50;99.90;;;;;;5026989;28;20222;-63
2022/06/24 12:01:21;;;;;;;5.28;3.72;;;24.60;99.90;;;;;;4997083;28;20232;-63
2022/06/24 12:03:50;;;;;;;7.68;3.47;;;24.40;99.90;;;;;;5005686;28;21309;-63
2022/06/24 12:06:17;;;;;;;5.57;3.20;;;24.50;99.90;;;;;;5029794;28;20313;-62
2022/06/24 12:08:45;;;;;;;3.95;2.20;;;24.40;99.90;;;;;;5012024;28;20217;-62
2022/06/24 12:11:17;;;;;;;3.92;3.10;;;24.30;99.90;;;;;;5026386;28;20189;-63
2022/06/24 12:13:56;;;;;;;4.18;1.30;;;24.20;99.90;;;;;;5027461;28;20228;-63
2022/06/24 12:16:23;;;;;;;5.43;1.58;;;24.00;99.90;;;;;;5006910;28;20216;-63
2022/06/24 12:18:50;;;;;;;3.40;1.48;;;24.00;99.90;;;;;;5019111;28;20814;-63
2022/06/24 12:21:25;;;;;;;1.52;1.35;;;23.80;99.90;;;;;;5028653;28;20204;-63
2022/06/24 12:23:52;;;;;;;1.63;1.10;;;23.80;99.90;;;;;;5020146;28;20309;-63
2022/06/24 12:26:21;;;;;;;1.10;1.00;;;23.70;99.90;;;;;;5033119;28;20510;-62
2022/06/24 12:29:00;;;;;;;1.67;1.13;;;23.70;99.90;;;;;;5030494;28;20234;-62
2022/06/24 12:31:27;;;;;;;1.20;1.10;;;23.60;99.90;;;;;;5010947;28;20201;-63
2022/06/24 12:33:55;;;;;;;1.75;1.20;;;23.60;99.90;;;;;;5013395;28;20196;-63
2022/06/24 12:36:24;;;;;;;2.55;1.48;;;23.60;99.90;;;;;;5028595;28;20223;-62
2022/06/24 12:39:03;;;;;;;1.77;1.60;;;23.60;99.90;;;;;;4996112;28;20228;-62
2022/06/24 12:41:42;;;;;;;2.83;1.30;;;23.60;99.90;;;;;;5018834;28;20322;-63
2022/06/24 12:44:09;;;;;;;3.47;1.65;;;23.50;99.90;;;;;;5007365;28;20359;-63
2022/06/24 12:50:34;;;;;;;5.03;1.40;;;23.70;99.90;;;;;;4999508;28;20213;-63
2022/06/24 12:52:33;;;;;;;3.08;1.40;;;24.70;99.90;;;;;;4990424;28;20928;-62
2022/06/24 12:54:59;;;;;;;6.00;1.40;;;23.90;99.90;;;;;;5005204;28;20221;-63
2022/06/24 12:57:28;;;;;;;7.60;1.60;;;24.00;99.90;;;;;;5020001;28;20361;-62
2022/06/24 12:59:54;;;;;;;3.83;1.60;;;23.90;99.90;;;;;;5012943;28;20207;-63
2022/06/24 13:02:21;;;;;;;1.95;1.48;;;23.90;99.90;;;;;;5006922;28;20491;-63
2022/06/24 13:04:48;;;;;;;2.90;1.38;;;23.90;99.90;;;;;;5006918;28;20212;-62
2022/06/24 13:07:15;;;;;;;2.50;1.50;;;23.90;99.90;;;;;;5008472;28;20229;-63
2022/06/24 13:09:42;;;;;;;4.65;1.20;;;24.00;99.90;;;;;;5016787;28;20235;-63
2022/06/24 13:12:09;;;;;;;3.38;1.40;;;24.00;99.90;;;;;;4990843;28;20781;-63